sensor_id;sensor_type;location;lat;lon;timestamp;P1;durP1;ratioP1;P2;durP2;ratioP2
1887;SDS011;944;51.574;6.980;2023-12-14T07:58:56;45.07;;;24.50;;
1887;SDS011;944;51.574;6.980;2023-12-14T08:01:32;41.47;;;24.83;;
1887;SDS011;944;51.574;6.980;2023-12-14T08:04:03;43.40;;;25.20;;
1887;SDS011;944;51.574;6.980;2023-12-14T08:06:30;38.93;;;24.07;;
1887;SDS011;944;51.574;6.980;2023-12-14T08:09:10;40.60;;;24.27;;
1887;SDS011;944;51.574;6.980;2023-12-14T08:11:50;38.93;;;23.30;;
1887;SDS011;944;51.574;6.980;2023-12-14T08:14:19;35.20;;;22.57;;
1887;SDS011;944;51.574;6.980;2023-12-14T08:16:53;34.50;;;21.30;;
1887;SDS011;944;51.574;6.980;2023-12-14T08:19:35;40.87;;;23.50;;
1887;SDS011;944;51.574;6.980;2023-12-14T08:22:15;30.47;;;21.20;;
1887;SDS011;944;51.574;6.980;2023-12-14T08:24:56;40.83;;;22.90;;
1887;SDS011;944;51.574;6.980;2023-12-14T08:27:35;37.43;;;22.80;;
1887;SDS011;944;51.574;6.980;2023-12-14T08:30:17;43.70;;;23.87;;
1887;SDS011;944;51.574;6.980;2023-12-14T08:33:06;37.03;;;23.00;;
1887;SDS011;944;51.574;6.980;2023-12-14T08:35:39;35.50;;;21.30;;
1887;SDS011;944;51.574;6.980;2023-12-14T08:38:55;40.60;;;23.43;;
1887;SDS011;944;51.574;6.980;2023-12-14T08:41:29;34.90;;;22.13;;
1887;SDS011;944;51.574;6.980;2023-12-14T09:10:56;47.70;;;26.67;;
1887;SDS011;944;51.574;6.980;2023-12-14T11:01:06;28.20;;;16.70;;
1887;SDS011;944;51.574;6.980;2023-12-14T11:03:42;23.60;;;15.40;;
1887;SDS011;944;51.574;6.980;2023-12-14T11:06:20;26.10;;;16.77;;
1887;SDS011;944;51.574;6.980;2023-12-14T11:09:02;27.63;;;16.83;;
1887;SDS011;944;51.574;6.980;2023-12-14T11:11:38;27.80;;;17.43;;
1887;SDS011;944;51.574;6.980;2023-12-14T11:14:11;31.37;;;16.83;;
1887;SDS011;944;51.574;6.980;2023-12-14T11:16:40;26.77;;;17.00;;
1887;SDS011;944;51.574;6.980;2023-12-14T11:19:33;32.77;;;19.87;;
1887;SDS011;944;51.574;6.980;2023-12-14T11:22:13;29.57;;;18.57;;
1887;SDS011;944;51.574;6.980;2023-12-14T11:24:52;37.83;;;18.77;;
1887;SDS011;944;51.574;6.980;2023-12-14T11:27:28;32.37;;;18.93;;
1887;SDS011;944;51.574;6.980;2023-12-14T11:29:56;39.27;;;20.97;;
1887;SDS011;944;51.574;6.980;2023-12-14T11:32:28;38.30;;;20.70;;
1887;SDS011;944;51.574;6.980;2023-12-14T11:34:57;32.50;;;19.40;;
1887;SDS011;944;51.574;6.980;2023-12-14T11:37:26;34.90;;;19.40;;
1887;SDS011;944;51.574;6.980;2023-12-14T11:40:00;32.43;;;18.77;;
1887;SDS011;944;51.574;6.980;2023-12-14T11:42:30;30.10;;;17.80;;
1887;SDS011;944;51.574;6.980;2023-12-14T11:44:57;32.33;;;17.27;;
1887;SDS011;944;51.574;6.980;2023-12-14T11:47:30;32.97;;;18.03;;
1887;SDS011;944;51.574;6.980;2023-12-14T11:50:02;26.13;;;15.83;;
1887;SDS011;944;51.574;6.980;2023-12-14T11:52:31;28.30;;;14.90;;
1887;SDS011;944;51.574;6.980;2023-12-14T11:54:58;30.13;;;14.20;;
1887;SDS011;944;51.574;6.980;2023-12-14T12:01:10;29.20;;;13.73;;
1887;SDS011;944;51.574;6.980;2023-12-14T12:03:41;24.27;;;14.20;;
1887;SDS011;944;51.574;6.980;2023-12-14T12:29:28;27.00;;;14.17;;
1887;SDS011;944;51.574;6.980;2023-12-14T12:40:39;20.93;;;13.57;;
1887;SDS011;944;51.574;6.980;2023-12-14T12:48:48;22.73;;;11.80;;
1887;SDS011;944;51.574;6.980;2023-12-14T13:29:29;27.20;;;16.33;;
1887;SDS011;944;51.574;6.980;2023-12-14T13:52:57;31.23;;;18.90;;
1887;SDS011;944;51.574;6.980;2023-12-14T14:06:31;32.33;;;20.07;;
1887;SDS011;944;51.574;6.980;2023-12-14T14:48:09;21.53;;;13.13;;
1887;SDS011;944;51.574;6.980;2023-12-14T18:05:33;30.10;;;16.47;;
1887;SDS011;944;51.574;6.980;2023-12-14T19:44:55;43.83;;;22.73;;
1887;SDS011;944;51.574;6.980;2023-12-14T22:32:19;37.33;;;22.20;;
1887;SDS011;944;51.574;6.980;2023-12-14T22:38:56;52.80;;;23.17;;
